sensor_id;sensor_type;location;lat;lon;timestamp;P1;durP1;ratioP1;P2;durP2;ratioP2
61413;SDS011;47279;52.426;10.488;2023-07-20T00:00:05;1.63;;;1.40;;
61413;SDS011;47279;52.426;10.488;2023-07-20T00:02:31;1.35;;;1.25;;
61413;SDS011;47279;52.426;10.488;2023-07-20T00:04:57;1.77;;;1.40;;
61413;SDS011;47279;52.426;10.488;2023-07-20T00:07:23;1.30;;;1.20;;
61413;SDS011;47279;52.426;10.488;2023-07-20T00:09:49;2.28;;;1.42;;
61413;SDS011;47279;52.426;10.488;2023-07-20T00:12:15;1.38;;;1.27;;
61413;SDS011;47279;52.426;10.488;2023-07-20T00:14:41;1.50;;;1.23;;
61413;SDS011;47279;52.426;10.488;2023-07-20T00:17:07;1.48;;;1.38;;
61413;SDS011;47279;52.426;10.488;2023-07-20T00:19:33;2.17;;;1.60;;
61413;SDS011;47279;52.426;10.488;2023-07-20T00:22:00;1.63;;;1.40;;
61413;SDS011;47279;52.426;10.488;2023-07-20T00:24:26;1.60;;;1.40;;
61413;SDS011;47279;52.426;10.488;2023-07-20T00:26:52;2.00;;;1.30;;
61413;SDS011;47279;52.426;10.488;2023-07-20T00:29:18;1.80;;;1.52;;
61413;SDS011;47279;52.426;10.488;2023-07-20T00:31:44;1.75;;;1.40;;
61413;SDS011;47279;52.426;10.488;2023-07-20T00:34:10;1.60;;;1.20;;
61413;SDS011;47279;52.426;10.488;2023-07-20T00:36:36;1.63;;;1.50;;
61413;SDS011;47279;52.426;10.488;2023-07-20T00:39:02;1.50;;;1.40;;
61413;SDS011;47279;52.426;10.488;2023-07-20T00:41:28;1.40;;;1.23;;
61413;SDS011;47279;52.426;10.488;2023-07-20T00:43:55;1.52;;;1.20;;
61413;SDS011;47279;52.426;10.488;2023-07-20T00:46:22;1.92;;;1.20;;
61413;SDS011;47279;52.426;10.488;2023-07-20T00:48:49;1.38;;;1.27;;
61413;SDS011;47279;52.426;10.488;2023-07-20T00:51:15;1.35;;;1.25;;
61413;SDS011;47279;52.426;10.488;2023-07-20T00:53:41;1.30;;;1.20;;
61413;SDS011;47279;52.426;10.488;2023-07-20T00:56:07;1.40;;;1.30;;
61413;SDS011;47279;52.426;10.488;2023-07-20T00:58:33;1.70;;;1.50;;
61413;SDS011;47279;52.426;10.488;2023-07-20T01:00:59;1.67;;;1.27;;
61413;SDS011;47279;52.426;10.488;2023-07-20T01:03:25;1.45;;;1.35;;
61413;SDS011;47279;52.426;10.488;2023-07-20T01:05:54;1.42;;;1.30;;
61413;SDS011;47279;52.426;10.488;2023-07-20T01:10:54;1.38;;;1.27;;
61413;SDS011;47279;52.426;10.488;2023-07-20T01:13:22;1.38;;;1.25;;
61413;SDS011;47279;52.426;10.488;2023-07-20T01:15:49;1.48;;;1.38;;
61413;SDS011;47279;52.426;10.488;2023-07-20T01:18:16;1.27;;;1.17;;
61413;SDS011;47279;52.426;10.488;2023-07-20T01:20:43;1.40;;;1.30;;
61413;SDS011;47279;52.426;10.488;2023-07-20T01:23:18;1.30;;;1.20;;
61413;SDS011;47279;52.426;10.488;2023-07-20T01:28:37;1.52;;;1.30;;
61413;SDS011;47279;52.426;10.488;2023-07-20T01:33:35;1.30;;;1.20;;
61413;SDS011;47279;52.426;10.488;2023-07-20T01:36:01;1.15;;;1.05;;
61413;SDS011;47279;52.426;10.488;2023-07-20T01:38:28;1.40;;;1.30;;
61413;SDS011;47279;52.426;10.488;2023-07-20T01:40:54;1.40;;;1.30;;
61413;SDS011;47279;52.426;10.488;2023-07-20T01:43:21;1.38;;;1.27;;
61413;SDS011;47279;52.426;10.488;2023-07-20T01:45:47;1.55;;;1.33;;
61413;SDS011;47279;52.426;10.488;2023-07-20T01:48:13;1.10;;;1.00;;
61413;SDS011;47279;52.426;10.488;2023-07-20T01:50:39;1.55;;;1.20;;
61413;SDS011;47279;52.426;10.488;2023-07-20T01:53:05;1.35;;;1.25;;
61413;SDS011;47279;52.426;10.488;2023-07-20T01:55:31;1.70;;;1.23;;
61413;SDS011;47279;52.426;10.488;2023-07-20T02:07:08;1.27;;;1.10;;
61413;SDS011;47279;52.426;10.488;2023-07-20T02:09:34;1.30;;;1.20;;
61413;SDS011;47279;52.426;10.488;2023-07-20T02:12:00;1.50;;;0.98;;
61413;SDS011;47279;52.426;10.488;2023-07-20T02:14:26;1.60;;;1.35;;
61413;SDS011;47279;52.426;10.488;2023-07-20T02:16:52;1.30;;;1.10;;
61413;SDS011;47279;52.426;10.488;2023-07-20T02:21:47;1.45;;;1.20;;
61413;SDS011;47279;52.426;10.488;2023-07-20T02:24:13;1.60;;;1.10;;
61413;SDS011;47279;52.426;10.488;2023-07-20T02:26:39;1.67;;;1.58;;
61413;SDS011;47279;52.426;10.488;2023-07-20T02:29:05;1.67;;;1.23;;
61413;SDS011;47279;52.426;10.488;2023-07-20T02:31:33;1.58;;;1.35;;
61413;SDS011;47279;52.426;10.488;2023-07-20T02:33:59;1.45;;;1.17;;
61413;SDS011;47279;52.426;10.488;2023-07-20T02:36:24;0.90;;;0.90;;
61413;SDS011;47279;52.426;10.488;2023-07-20T02:38:50;1.17;;;1.02;;
61413;SDS011;47279;52.426;10.488;2023-07-20T02:41:17;1.42;;;1.20;;
61413;SDS011;47279;52.426;10.488;2023-07-20T02:43:43;1.20;;;1.02;;
61413;SDS011;47279;52.426;10.488;2023-07-20T02:46:08;1.10;;;1.00;;
61413;SDS011;47279;52.426;10.488;2023-07-20T02:48:34;1.35;;;1.25;;
61413;SDS011;47279;52.426;10.488;2023-07-20T02:51:00;1.20;;;1.10;;
61413;SDS011;47279;52.426;10.488;2023-07-20T02:53:26;1.67;;;1.20;;
61413;SDS011;47279;52.426;10.488;2023-07-20T02:55:52;1.40;;;1.30;;
61413;SDS011;47279;52.426;10.488;2023-07-20T02:58:18;1.20;;;1.10;;
61413;SDS011;47279;52.426;10.488;2023-07-20T03:00:44;1.02;;;0.85;;
61413;SDS011;47279;52.426;10.488;2023-07-20T03:03:10;1.10;;;1.00;;
61413;SDS011;47279;52.426;10.488;2023-07-20T03:05:36;1.00;;;0.90;;
61413;SDS011;47279;52.426;10.488;2023-07-20T03:08:04;1.27;;;1.00;;
61413;SDS011;47279;52.426;10.488;2023-07-20T03:10:31;1.38;;;1.10;;
61413;SDS011;47279;52.426;10.488;2023-07-20T03:12:57;1.23;;;1.00;;
61413;SDS011;47279;52.426;10.488;2023-07-20T03:15:23;1.20;;;1.10;;
61413;SDS011;47279;52.426;10.488;2023-07-20T03:17:49;1.30;;;1.20;;
61413;SDS011;47279;52.426;10.488;2023-07-20T03:20:16;0.95;;;0.90;;
61413;SDS011;47279;52.426;10.488;2023-07-20T03:22:42;1.10;;;1.00;;
61413;SDS011;47279;52.426;10.488;2023-07-20T03:25:08;1.20;;;1.10;;
61413;SDS011;47279;52.426;10.488;2023-07-20T03:27:34;1.10;;;1.00;;
61413;SDS011;47279;52.426;10.488;2023-07-20T03:30:00;1.10;;;1.00;;
61413;SDS011;47279;52.426;10.488;2023-07-20T03:32:27;1.42;;;1.00;;
61413;SDS011;47279;52.426;10.488;2023-07-20T03:34:53;0.90;;;0.90;;
61413;SDS011;47279;52.426;10.488;2023-07-20T03:37:19;1.10;;;1.00;;
61413;SDS011;47279;52.426;10.488;2023-07-20T03:39:45;1.13;;;1.02;;
61413;SDS011;47279;52.426;10.488;2023-07-20T03:42:10;0.80;;;0.80;;
61413;SDS011;47279;52.426;10.488;2023-07-20T03:44:36;0.90;;;0.90;;
61413;SDS011;47279;52.426;10.488;2023-07-20T03:47:03;0.90;;;0.90;;
61413;SDS011;47279;52.426;10.488;2023-07-20T03:49:29;1.00;;;0.95;;
61413;SDS011;47279;52.426;10.488;2023-07-20T03:51:55;0.98;;;0.90;;
61413;SDS011;47279;52.426;10.488;2023-07-20T03:54:21;1.00;;;0.90;;
61413;SDS011;47279;52.426;10.488;2023-07-20T03:56:47;1.23;;;1.13;;
61413;SDS011;47279;52.426;10.488;2023-07-20T03:59:13;0.90;;;0.90;;
61413;SDS011;47279;52.426;10.488;2023-07-20T04:01:39;0.88;;;0.88;;
61413;SDS011;47279;52.426;10.488;2023-07-20T04:04:05;1.10;;;1.00;;
61413;SDS011;47279;52.426;10.488;2023-07-20T04:06:32;1.67;;;1.10;;
61413;SDS011;47279;52.426;10.488;2023-07-20T04:08:58;1.35;;;1.15;;
61413;SDS011;47279;52.426;10.488;2023-07-20T04:11:24;1.10;;;1.00;;
61413;SDS011;47279;52.426;10.488;2023-07-20T04:13:50;1.10;;;1.00;;
61413;SDS011;47279;52.426;10.488;2023-07-20T04:16:16;1.05;;;0.95;;
61413;SDS011;47279;52.426;10.488;2023-07-20T04:18:42;1.00;;;0.90;;
61413;SDS011;47279;52.426;10.488;2023-07-20T04:21:08;1.13;;;1.02;;
61413;SDS011;47279;52.426;10.488;2023-07-20T04:23:34;1.35;;;0.82;;
61413;SDS011;47279;52.426;10.488;2023-07-20T04:26:00;1.02;;;0.93;;
61413;SDS011;47279;52.426;10.488;2023-07-20T04:28:27;1.00;;;1.00;;
61413;SDS011;47279;52.426;10.488;2023-07-20T04:30:53;0.98;;;0.88;;
61413;SDS011;47279;52.426;10.488;2023-07-20T04:33:19;0.85;;;0.85;;
61413;SDS011;47279;52.426;10.488;2023-07-20T04:38:11;1.38;;;0.95;;
61413;SDS011;47279;52.426;10.488;2023-07-20T04:40:36;1.08;;;0.93;;
61413;SDS011;47279;52.426;10.488;2023-07-20T04:43:02;1.30;;;1.02;;
61413;SDS011;47279;52.426;10.488;2023-07-20T04:45:28;1.10;;;0.90;;
61413;SDS011;47279;52.426;10.488;2023-07-20T04:47:55;1.38;;;1.25;;
61413;SDS011;47279;52.426;10.488;2023-07-20T04:50:21;1.20;;;1.10;;
61413;SDS011;47279;52.426;10.488;2023-07-20T04:52:49;1.40;;;1.30;;
61413;SDS011;47279;52.426;10.488;2023-07-20T04:55:15;1.55;;;1.42;;
61413;SDS011;47279;52.426;10.488;2023-07-20T04:57:41;1.70;;;1.23;;
61413;SDS011;47279;52.426;10.488;2023-07-20T05:00:07;1.38;;;1.23;;
61413;SDS011;47279;52.426;10.488;2023-07-20T05:02:36;1.33;;;1.20;;
61413;SDS011;47279;52.426;10.488;2023-07-20T05:05:02;3.05;;;1.40;;
61413;SDS011;47279;52.426;10.488;2023-07-20T05:07:30;1.38;;;1.20;;
61413;SDS011;47279;52.426;10.488;2023-07-20T05:09:57;1.80;;;1.30;;
61413;SDS011;47279;52.426;10.488;2023-07-20T05:12:23;3.53;;;1.40;;
61413;SDS011;47279;52.426;10.488;2023-07-20T05:14:49;1.70;;;1.60;;
61413;SDS011;47279;52.426;10.488;2023-07-20T05:17:14;1.88;;;1.30;;
61413;SDS011;47279;52.426;10.488;2023-07-20T05:19:40;1.92;;;1.15;;
61413;SDS011;47279;52.426;10.488;2023-07-20T05:22:06;1.80;;;1.23;;
61413;SDS011;47279;52.426;10.488;2023-07-20T05:24:32;1.40;;;1.30;;
61413;SDS011;47279;52.426;10.488;2023-07-20T05:26:58;2.03;;;1.42;;
61413;SDS011;47279;52.426;10.488;2023-07-20T05:29:24;1.10;;;1.00;;
61413;SDS011;47279;52.426;10.488;2023-07-20T05:31:51;1.50;;;1.30;;
61413;SDS011;47279;52.426;10.488;2023-07-20T05:34:17;1.88;;;1.17;;
61413;SDS011;47279;52.426;10.488;2023-07-20T05:36:43;1.67;;;1.30;;
61413;SDS011;47279;52.426;10.488;2023-07-20T05:39:09;1.40;;;1.20;;
61413;SDS011;47279;52.426;10.488;2023-07-20T05:41:35;1.88;;;1.58;;
61413;SDS011;47279;52.426;10.488;2023-07-20T05:44:01;1.90;;;1.40;;
61413;SDS011;47279;52.426;10.488;2023-07-20T05:46:27;2.13;;;1.38;;
61413;SDS011;47279;52.426;10.488;2023-07-20T05:48:53;2.75;;;1.52;;
61413;SDS011;47279;52.426;10.488;2023-07-20T05:51:19;2.10;;;1.65;;
61413;SDS011;47279;52.426;10.488;2023-07-20T05:53:44;2.90;;;1.73;;
61413;SDS011;47279;52.426;10.488;2023-07-20T05:56:10;2.30;;;1.85;;
61413;SDS011;47279;52.426;10.488;2023-07-20T05:58:36;2.03;;;1.83;;
61413;SDS011;47279;52.426;10.488;2023-07-20T06:01:03;2.55;;;1.67;;
61413;SDS011;47279;52.426;10.488;2023-07-20T06:03:31;3.25;;;2.00;;
61413;SDS011;47279;52.426;10.488;2023-07-20T06:05:59;2.53;;;2.00;;
61413;SDS011;47279;52.426;10.488;2023-07-20T06:08:26;2.88;;;1.90;;
61413;SDS011;47279;52.426;10.488;2023-07-20T06:10:52;3.00;;;2.13;;
61413;SDS011;47279;52.426;10.488;2023-07-20T06:13:17;2.40;;;2.20;;
61413;SDS011;47279;52.426;10.488;2023-07-20T06:15:43;2.30;;;2.10;;
61413;SDS011;47279;52.426;10.488;2023-07-20T06:18:09;3.05;;;2.30;;
61413;SDS011;47279;52.426;10.488;2023-07-20T06:20:35;2.33;;;2.13;;
61413;SDS011;47279;52.426;10.488;2023-07-20T06:23:01;3.15;;;2.50;;
61413;SDS011;47279;52.426;10.488;2023-07-20T06:25:27;3.45;;;2.13;;
61413;SDS011;47279;52.426;10.488;2023-07-20T06:27:54;6.13;;;3.05;;
61413;SDS011;47279;52.426;10.488;2023-07-20T06:30:20;4.82;;;2.90;;
61413;SDS011;47279;52.426;10.488;2023-07-20T06:32:47;3.88;;;3.03;;
61413;SDS011;47279;52.426;10.488;2023-07-20T06:35:13;4.70;;;3.22;;
61413;SDS011;47279;52.426;10.488;2023-07-20T06:37:40;4.38;;;3.45;;
61413;SDS011;47279;52.426;10.488;2023-07-20T06:40:06;5.57;;;3.13;;
61413;SDS011;47279;52.426;10.488;2023-07-20T06:42:34;7.75;;;3.90;;
61413;SDS011;47279;52.426;10.488;2023-07-20T06:45:00;5.93;;;2.97;;
61413;SDS011;47279;52.426;10.488;2023-07-20T06:47:26;3.30;;;2.72;;
61413;SDS011;47279;52.426;10.488;2023-07-20T06:49:52;4.28;;;2.60;;
61413;SDS011;47279;52.426;10.488;2023-07-20T06:52:18;5.85;;;2.42;;
61413;SDS011;47279;52.426;10.488;2023-07-20T06:54:44;2.28;;;1.80;;
61413;SDS011;47279;52.426;10.488;2023-07-20T06:57:10;2.20;;;2.00;;
61413;SDS011;47279;52.426;10.488;2023-07-20T06:59:36;2.00;;;1.63;;
61413;SDS011;47279;52.426;10.488;2023-07-20T07:02:02;1.60;;;1.50;;
61413;SDS011;47279;52.426;10.488;2023-07-20T07:04:28;1.83;;;1.55;;
61413;SDS011;47279;52.426;10.488;2023-07-20T07:06:54;2.55;;;1.27;;
61413;SDS011;47279;52.426;10.488;2023-07-20T07:09:20;5.10;;;1.80;;
61413;SDS011;47279;52.426;10.488;2023-07-20T07:11:46;1.23;;;1.13;;
61413;SDS011;47279;52.426;10.488;2023-07-20T07:14:12;1.42;;;1.10;;
61413;SDS011;47279;52.426;10.488;2023-07-20T07:16:38;1.05;;;0.90;;
61413;SDS011;47279;52.426;10.488;2023-07-20T07:19:04;1.20;;;1.00;;
61413;SDS011;47279;52.426;10.488;2023-07-20T07:21:32;0.80;;;0.80;;
61413;SDS011;47279;52.426;10.488;2023-07-20T07:23:58;1.23;;;0.82;;
61413;SDS011;47279;52.426;10.488;2023-07-20T07:26:24;0.75;;;0.75;;
61413;SDS011;47279;52.426;10.488;2023-07-20T07:28:50;1.02;;;0.80;;
61413;SDS011;47279;52.426;10.488;2023-07-20T07:31:16;0.93;;;0.73;;
61413;SDS011;47279;52.426;10.488;2023-07-20T07:33:42;0.85;;;0.80;;
61413;SDS011;47279;52.426;10.488;2023-07-20T07:36:08;0.75;;;0.60;;
61413;SDS011;47279;52.426;10.488;2023-07-20T07:38:34;0.52;;;0.52;;
61413;SDS011;47279;52.426;10.488;2023-07-20T07:41:00;1.08;;;0.80;;
61413;SDS011;47279;52.426;10.488;2023-07-20T07:43:26;0.77;;;0.70;;
61413;SDS011;47279;52.426;10.488;2023-07-20T07:45:53;9.27;;;1.13;;
61413;SDS011;47279;52.426;10.488;2023-07-20T07:48:20;2.92;;;0.80;;
61413;SDS011;47279;52.426;10.488;2023-07-20T07:50:47;1.70;;;0.90;;
61413;SDS011;47279;52.426;10.488;2023-07-20T07:53:13;2.45;;;0.80;;
61413;SDS011;47279;52.426;10.488;2023-07-20T07:55:39;0.98;;;0.80;;
61413;SDS011;47279;52.426;10.488;2023-07-20T07:58:06;1.85;;;0.73;;
61413;SDS011;47279;52.426;10.488;2023-07-20T08:00:32;1.92;;;0.80;;
61413;SDS011;47279;52.426;10.488;2023-07-20T08:02:58;1.92;;;1.00;;
61413;SDS011;47279;52.426;10.488;2023-07-20T08:05:24;1.38;;;0.95;;
61413;SDS011;47279;52.426;10.488;2023-07-20T08:07:51;1.55;;;0.80;;
61413;SDS011;47279;52.426;10.488;2023-07-20T08:10:18;1.35;;;0.90;;
61413;SDS011;47279;52.426;10.488;2023-07-20T08:12:44;2.45;;;0.93;;
61413;SDS011;47279;52.426;10.488;2023-07-20T08:15:13;1.50;;;0.90;;
61413;SDS011;47279;52.426;10.488;2023-07-20T08:17:40;1.38;;;1.05;;
61413;SDS011;47279;52.426;10.488;2023-07-20T08:20:07;2.90;;;1.27;;
61413;SDS011;47279;52.426;10.488;2023-07-20T08:22:37;1.60;;;1.08;;
61413;SDS011;47279;52.426;10.488;2023-07-20T08:25:03;1.67;;;1.10;;
61413;SDS011;47279;52.426;10.488;2023-07-20T08:27:29;5.13;;;1.25;;
61413;SDS011;47279;52.426;10.488;2023-07-20T08:29:55;2.83;;;1.02;;
61413;SDS011;47279;52.426;10.488;2023-07-20T08:32:21;1.67;;;1.00;;
61413;SDS011;47279;52.426;10.488;2023-07-20T08:34:47;1.35;;;1.10;;
61413;SDS011;47279;52.426;10.488;2023-07-20T08:37:13;2.25;;;1.05;;
61413;SDS011;47279;52.426;10.488;2023-07-20T08:39:39;1.30;;;1.20;;
61413;SDS011;47279;52.426;10.488;2023-07-20T08:42:05;0.90;;;0.90;;
61413;SDS011;47279;52.426;10.488;2023-07-20T08:44:32;1.13;;;1.02;;
61413;SDS011;47279;52.426;10.488;2023-07-20T08:46:59;2.33;;;1.00;;
61413;SDS011;47279;52.426;10.488;2023-07-20T08:49:27;3.40;;;1.10;;
61413;SDS011;47279;52.426;10.488;2023-07-20T08:51:53;3.38;;;1.10;;
61413;SDS011;47279;52.426;10.488;2023-07-20T08:54:20;4.20;;;1.10;;
61413;SDS011;47279;52.426;10.488;2023-07-20T08:56:46;1.95;;;1.10;;
61413;SDS011;47279;52.426;10.488;2023-07-20T08:59:16;3.10;;;1.00;;
61413;SDS011;47279;52.426;10.488;2023-07-20T09:01:44;1.70;;;0.93;;
61413;SDS011;47279;52.426;10.488;2023-07-20T09:04:11;3.15;;;1.30;;
61413;SDS011;47279;52.426;10.488;2023-07-20T09:06:37;1.95;;;1.00;;
61413;SDS011;47279;52.426;10.488;2023-07-20T09:09:03;2.03;;;1.25;;
61413;SDS011;47279;52.426;10.488;2023-07-20T09:11:31;1.08;;;0.93;;
61413;SDS011;47279;52.426;10.488;2023-07-20T09:14:04;0.75;;;0.75;;
61413;SDS011;47279;52.426;10.488;2023-07-20T09:16:30;2.67;;;0.88;;
61413;SDS011;47279;52.426;10.488;2023-07-20T09:18:57;0.93;;;0.93;;
61413;SDS011;47279;52.426;10.488;2023-07-20T09:21:23;2.33;;;1.10;;
61413;SDS011;47279;52.426;10.488;2023-07-20T09:23:49;1.48;;;1.02;;
61413;SDS011;47279;52.426;10.488;2023-07-20T09:26:18;1.30;;;0.95;;
61413;SDS011;47279;52.426;10.488;2023-07-20T09:28:47;0.90;;;0.90;;
61413;SDS011;47279;52.426;10.488;2023-07-20T09:31:20;1.63;;;1.10;;
61413;SDS011;47279;52.426;10.488;2023-07-20T09:33:47;1.35;;;1.25;;
61413;SDS011;47279;52.426;10.488;2023-07-20T09:36:13;1.35;;;0.90;;
61413;SDS011;47279;52.426;10.488;2023-07-20T09:38:41;1.70;;;0.90;;
61413;SDS011;47279;52.426;10.488;2023-07-20T09:41:08;1.45;;;0.93;;
61413;SDS011;47279;52.426;10.488;2023-07-20T09:43:34;1.08;;;0.93;;
61413;SDS011;47279;52.426;10.488;2023-07-20T09:46:00;1.00;;;0.80;;
61413;SDS011;47279;52.426;10.488;2023-07-20T09:48:26;1.55;;;1.00;;
61413;SDS011;47279;52.426;10.488;2023-07-20T09:50:52;1.67;;;0.95;;
61413;SDS011;47279;52.426;10.488;2023-07-20T09:53:19;4.05;;;1.00;;
61413;SDS011;47279;52.426;10.488;2023-07-20T09:55:46;3.97;;;1.20;;
61413;SDS011;47279;52.426;10.488;2023-07-20T09:58:12;2.22;;;1.20;;
61413;SDS011;47279;52.426;10.488;2023-07-20T10:00:39;2.17;;;1.30;;
61413;SDS011;47279;52.426;10.488;2023-07-20T10:03:06;2.38;;;1.00;;
61413;SDS011;47279;52.426;10.488;2023-07-20T10:05:35;1.42;;;1.00;;
61413;SDS011;47279;52.426;10.488;2023-07-20T10:08:02;1.35;;;1.25;;
61413;SDS011;47279;52.426;10.488;2023-07-20T10:10:30;3.03;;;1.00;;
61413;SDS011;47279;52.426;10.488;2023-07-20T10:12:58;3.47;;;1.45;;
61413;SDS011;47279;52.426;10.488;2023-07-20T10:15:25;2.80;;;1.10;;
61413;SDS011;47279;52.426;10.488;2023-07-20T10:17:58;1.80;;;1.00;;
61413;SDS011;47279;52.426;10.488;2023-07-20T10:20:27;5.28;;;1.30;;
61413;SDS011;47279;52.426;10.488;2023-07-20T10:22:53;2.38;;;1.20;;
61413;SDS011;47279;52.426;10.488;2023-07-20T10:25:20;3.03;;;1.27;;
61413;SDS011;47279;52.426;10.488;2023-07-20T10:27:48;2.03;;;1.20;;
61413;SDS011;47279;52.426;10.488;2023-07-20T10:30:14;4.03;;;1.30;;
61413;SDS011;47279;52.426;10.488;2023-07-20T10:32:40;2.92;;;1.55;;
61413;SDS011;47279;52.426;10.488;2023-07-20T10:35:14;3.38;;;1.30;;
61413;SDS011;47279;52.426;10.488;2023-07-20T10:37:46;2.13;;;1.02;;
61413;SDS011;47279;52.426;10.488;2023-07-20T10:43:00;1.92;;;1.10;;
61413;SDS011;47279;52.426;10.488;2023-07-20T10:46:00;2.42;;;1.20;;
61413;SDS011;47279;52.426;10.488;2023-07-20T10:48:22;3.38;;;1.17;;
61413;SDS011;47279;52.426;10.488;2023-07-20T10:53:33;1.65;;;1.30;;
61413;SDS011;47279;52.426;10.488;2023-07-20T10:56:07;1.38;;;1.20;;
61413;SDS011;47279;52.426;10.488;2023-07-20T10:58:33;2.33;;;1.30;;
61413;SDS011;47279;52.426;10.488;2023-07-20T11:01:01;2.38;;;1.58;;
61413;SDS011;47279;52.426;10.488;2023-07-20T11:03:31;1.55;;;1.25;;
61413;SDS011;47279;52.426;10.488;2023-07-20T11:05:58;2.17;;;1.10;;
61413;SDS011;47279;52.426;10.488;2023-07-20T11:08:39;2.15;;;1.20;;
61413;SDS011;47279;52.426;10.488;2023-07-20T11:11:27;1.98;;;1.23;;
61413;SDS011;47279;52.426;10.488;2023-07-20T11:14:03;3.22;;;1.20;;
61413;SDS011;47279;52.426;10.488;2023-07-20T11:16:46;3.05;;;1.10;;
61413;SDS011;47279;52.426;10.488;2023-07-20T11:21:41;1.30;;;1.08;;
61413;SDS011;47279;52.426;10.488;2023-07-20T11:24:07;1.67;;;1.15;;
61413;SDS011;47279;52.426;10.488;2023-07-20T11:29:10;2.50;;;1.00;;
61413;SDS011;47279;52.426;10.488;2023-07-20T11:31:37;1.90;;;1.25;;
61413;SDS011;47279;52.426;10.488;2023-07-20T11:34:03;1.63;;;1.10;;
61413;SDS011;47279;52.426;10.488;2023-07-20T11:36:29;3.03;;;1.20;;
61413;SDS011;47279;52.426;10.488;2023-07-20T11:38:57;1.10;;;0.88;;
61413;SDS011;47279;52.426;10.488;2023-07-20T11:41:23;1.77;;;1.10;;
61413;SDS011;47279;52.426;10.488;2023-07-20T11:43:51;2.28;;;1.20;;
61413;SDS011;47279;52.426;10.488;2023-07-20T11:46:17;1.08;;;1.00;;
61413;SDS011;47279;52.426;10.488;2023-07-20T11:48:43;1.08;;;1.00;;
61413;SDS011;47279;52.426;10.488;2023-07-20T11:51:15;1.73;;;1.00;;
61413;SDS011;47279;52.426;10.488;2023-07-20T11:53:42;1.10;;;1.10;;
61413;SDS011;47279;52.426;10.488;2023-07-20T11:56:09;1.15;;;1.05;;
61413;SDS011;47279;52.426;10.488;2023-07-20T11:58:35;1.13;;;1.02;;
61413;SDS011;47279;52.426;10.488;2023-07-20T12:01:01;1.30;;;0.90;;
61413;SDS011;47279;52.426;10.488;2023-07-20T12:03:27;1.70;;;1.48;;
61413;SDS011;47279;52.426;10.488;2023-07-20T12:05:53;1.33;;;1.10;;
61413;SDS011;47279;52.426;10.488;2023-07-20T12:08:19;1.15;;;1.05;;
61413;SDS011;47279;52.426;10.488;2023-07-20T12:10:45;1.55;;;1.10;;
61413;SDS011;47279;52.426;10.488;2023-07-20T12:13:11;2.17;;;1.17;;
61413;SDS011;47279;52.426;10.488;2023-07-20T12:15:37;1.17;;;1.08;;
61413;SDS011;47279;52.426;10.488;2023-07-20T12:18:04;0.80;;;0.80;;
61413;SDS011;47279;52.426;10.488;2023-07-20T12:20:34;1.70;;;1.35;;
61413;SDS011;47279;52.426;10.488;2023-07-20T12:25:40;1.20;;;0.98;;
61413;SDS011;47279;52.426;10.488;2023-07-20T12:28:08;1.20;;;1.10;;
61413;SDS011;47279;52.426;10.488;2023-07-20T12:30:34;1.02;;;0.90;;
61413;SDS011;47279;52.426;10.488;2023-07-20T12:33:00;1.90;;;1.00;;
61413;SDS011;47279;52.426;10.488;2023-07-20T12:35:27;1.00;;;0.98;;
61413;SDS011;47279;52.426;10.488;2023-07-20T12:37:53;0.90;;;0.90;;
61413;SDS011;47279;52.426;10.488;2023-07-20T12:40:20;1.25;;;0.90;;
61413;SDS011;47279;52.426;10.488;2023-07-20T12:42:46;0.90;;;0.90;;
61413;SDS011;47279;52.426;10.488;2023-07-20T12:45:12;1.25;;;0.90;;
61413;SDS011;47279;52.426;10.488;2023-07-20T12:47:38;0.98;;;0.98;;
61413;SDS011;47279;52.426;10.488;2023-07-20T12:50:05;1.67;;;1.02;;
61413;SDS011;47279;52.426;10.488;2023-07-20T12:52:31;0.82;;;0.82;;
61413;SDS011;47279;52.426;10.488;2023-07-20T12:54:57;0.95;;;0.95;;
61413;SDS011;47279;52.426;10.488;2023-07-20T12:57:23;2.17;;;1.17;;
61413;SDS011;47279;52.426;10.488;2023-07-20T12:59:49;1.40;;;1.10;;
61413;SDS011;47279;52.426;10.488;2023-07-20T13:02:15;1.30;;;1.10;;
61413;SDS011;47279;52.426;10.488;2023-07-20T13:04:42;1.48;;;1.20;;
61413;SDS011;47279;52.426;10.488;2023-07-20T13:07:09;1.38;;;0.90;;
61413;SDS011;47279;52.426;10.488;2023-07-20T13:09:37;1.10;;;1.00;;
61413;SDS011;47279;52.426;10.488;2023-07-20T13:12:03;1.50;;;0.98;;
61413;SDS011;47279;52.426;10.488;2023-07-20T13:14:29;1.20;;;0.88;;
61413;SDS011;47279;52.426;10.488;2023-07-20T13:16:55;0.80;;;0.80;;
61413;SDS011;47279;52.426;10.488;2023-07-20T13:19:21;1.00;;;0.90;;
61413;SDS011;47279;52.426;10.488;2023-07-20T13:21:47;1.00;;;1.00;;
61413;SDS011;47279;52.426;10.488;2023-07-20T13:24:13;1.23;;;1.13;;
61413;SDS011;47279;52.426;10.488;2023-07-20T13:26:40;0.90;;;0.77;;
61413;SDS011;47279;52.426;10.488;2023-07-20T13:29:06;1.00;;;0.90;;
61413;SDS011;47279;52.426;10.488;2023-07-20T13:31:32;0.95;;;0.90;;
61413;SDS011;47279;52.426;10.488;2023-07-20T13:33:58;1.35;;;1.00;;
61413;SDS011;47279;52.426;10.488;2023-07-20T13:36:24;1.00;;;1.00;;
61413;SDS011;47279;52.426;10.488;2023-07-20T13:38:50;1.73;;;1.08;;
61413;SDS011;47279;52.426;10.488;2023-07-20T13:41:16;1.27;;;1.17;;
61413;SDS011;47279;52.426;10.488;2023-07-20T13:43:42;0.82;;;0.82;;
61413;SDS011;47279;52.426;10.488;2023-07-20T13:46:09;1.73;;;1.10;;
61413;SDS011;47279;52.426;10.488;2023-07-20T13:48:35;1.20;;;1.10;;
61413;SDS011;47279;52.426;10.488;2023-07-20T13:51:01;1.40;;;1.00;;
61413;SDS011;47279;52.426;10.488;2023-07-20T13:53:27;0.95;;;0.95;;
61413;SDS011;47279;52.426;10.488;2023-07-20T13:55:53;0.98;;;0.90;;
61413;SDS011;47279;52.426;10.488;2023-07-20T13:58:19;0.90;;;0.90;;
61413;SDS011;47279;52.426;10.488;2023-07-20T14:00:46;1.02;;;1.00;;
61413;SDS011;47279;52.426;10.488;2023-07-20T14:03:12;1.15;;;0.98;;
61413;SDS011;47279;52.426;10.488;2023-07-20T14:05:38;0.90;;;0.90;;
61413;SDS011;47279;52.426;10.488;2023-07-20T14:08:04;1.10;;;1.00;;
61413;SDS011;47279;52.426;10.488;2023-07-20T14:10:30;0.88;;;0.88;;
61413;SDS011;47279;52.426;10.488;2023-07-20T14:12:56;1.00;;;1.00;;
61413;SDS011;47279;52.426;10.488;2023-07-20T14:15:22;1.00;;;0.90;;
61413;SDS011;47279;52.426;10.488;2023-07-20T14:17:48;0.80;;;0.80;;
61413;SDS011;47279;52.426;10.488;2023-07-20T14:20:14;0.80;;;0.80;;
61413;SDS011;47279;52.426;10.488;2023-07-20T14:22:40;0.80;;;0.80;;
61413;SDS011;47279;52.426;10.488;2023-07-20T14:25:07;0.90;;;0.90;;
61413;SDS011;47279;52.426;10.488;2023-07-20T14:27:33;0.80;;;0.80;;
61413;SDS011;47279;52.426;10.488;2023-07-20T14:29:59;0.95;;;0.80;;
61413;SDS011;47279;52.426;10.488;2023-07-20T14:32:25;0.75;;;0.75;;
61413;SDS011;47279;52.426;10.488;2023-07-20T14:34:51;0.95;;;0.95;;
61413;SDS011;47279;52.426;10.488;2023-07-20T14:37:17;0.90;;;0.90;;
61413;SDS011;47279;52.426;10.488;2023-07-20T14:39:43;0.90;;;0.90;;
61413;SDS011;47279;52.426;10.488;2023-07-20T14:42:09;0.90;;;0.90;;
61413;SDS011;47279;52.426;10.488;2023-07-20T14:44:35;0.90;;;0.90;;
61413;SDS011;47279;52.426;10.488;2023-07-20T14:47:01;1.27;;;1.17;;
61413;SDS011;47279;52.426;10.488;2023-07-20T14:49:27;1.35;;;0.95;;
61413;SDS011;47279;52.426;10.488;2023-07-20T14:51:53;1.65;;;0.90;;
61413;SDS011;47279;52.426;10.488;2023-07-20T14:54:19;1.15;;;1.08;;
61413;SDS011;47279;52.426;10.488;2023-07-20T14:56:48;1.45;;;1.02;;
61413;SDS011;47279;52.426;10.488;2023-07-20T14:59:17;1.20;;;1.10;;
61413;SDS011;47279;52.426;10.488;2023-07-20T15:01:43;1.08;;;0.93;;
61413;SDS011;47279;52.426;10.488;2023-07-20T15:04:13;1.55;;;1.10;;